Aviation Digital Data Service (ADDS)

Output produced by METARs form (1204 UTC 18 June 2019)
found at http://www.aviationweather.gov/metar/data/
 
METAR text: HUEN 181130Z 9000 FEW023 FEW025CB 25/19 Q1020
Conditions at: HUEN (ENTEBBE INTL ARP, UG) observed 1130 UTC 18 June 2019
Temperature: 25.0°C (77°F)
Dewpoint: 19.0°C (66°F) [RH = 69%]
Pressure (altimeter): 30.12 inches Hg (1020.0 mb)
Winds: missing
Visibility: 6 miles ( 9 km)
Ceiling: at least 12,000 feet AGL
Clouds: few clouds at 2300 feet AGL
few clouds at 2500 feet AGL
Weather: no significant weather observed at this time

METAR text: HUEN 181100Z 25008KT 9999 FEW023 FEW025CB 26/20 Q1021
Conditions at: HUEN (ENTEBBE INTL ARP, UG) observed 1100 UTC 18 June 2019
Temperature: 26.0°C (79°F)
Dewpoint: 20.0°C (68°F) [RH = 70%]
Pressure (altimeter): 30.15 inches Hg (1021.0 mb)
Winds: from the WSW (250 degrees) at 9 MPH (8 knots; 4.1 m/s)
Visibility: 6 or more miles (10+ km)
Ceiling: at least 12,000 feet AGL
Clouds: few clouds at 2300 feet AGL
few clouds at 2500 feet AGL
Weather: no significant weather observed at this time

METAR text: HUEN 181030Z 20009KT 9999 FEW023CB FEW025CB 25/20 Q1021
Conditions at: HUEN (ENTEBBE INTL ARP, UG) observed 1030 UTC 18 June 2019
Temperature: 25.0°C (77°F)
Dewpoint: 20.0°C (68°F) [RH = 74%]
Pressure (altimeter): 30.15 inches Hg (1021.0 mb)
Winds: from the SSW (200 degrees) at 10 MPH (9 knots; 4.6 m/s)
Visibility: 6 or more miles (10+ km)
Ceiling: at least 12,000 feet AGL
Clouds: few clouds at 2300 feet AGL
few clouds at 2500 feet AGL
Weather: no significant weather observed at this time

METAR text: HUEN 180930Z 26008KT 9999 SCT022TCU FEW024CB 25/20 Q1021
Conditions at: HUEN (ENTEBBE INTL ARP, UG) observed 0930 UTC 18 June 2019
Temperature: 25.0°C (77°F)
Dewpoint: 20.0°C (68°F) [RH = 74%]
Pressure (altimeter): 30.15 inches Hg (1021.0 mb)
Winds: from the W (260 degrees) at 9 MPH (8 knots; 4.1 m/s)
Visibility: 6 or more miles (10+ km)
Ceiling: at least 12,000 feet AGL
Clouds: scattered clouds at 2200 feet AGL
few clouds at 2400 feet AGL
Weather: no significant weather observed at this time

METAR text: HUEN 180900Z 26008KT 9999 SCT022TCU FEW024CB 24/19 Q1022
Conditions at: HUEN (ENTEBBE INTL ARP, UG) observed 0900 UTC 18 June 2019
Temperature: 24.0°C (75°F)
Dewpoint: 19.0°C (66°F) [RH = 74%]
Pressure (altimeter): 30.18 inches Hg (1022.0 mb)
Winds: from the W (260 degrees) at 9 MPH (8 knots; 4.1 m/s)
Visibility: 6 or more miles (10+ km)
Ceiling: at least 12,000 feet AGL
Clouds: scattered clouds at 2200 feet AGL
few clouds at 2400 feet AGL
Weather: no significant weather observed at this time

METAR text: HUEN 180830Z 18008KT 9000 SCT022TCU FEW024CB 24/21 Q1022
Conditions at: HUEN (ENTEBBE INTL ARP, UG) observed 0830 UTC 18 June 2019
Temperature: 24.0°C (75°F)
Dewpoint: 21.0°C (70°F) [RH = 83%]
Pressure (altimeter): 30.18 inches Hg (1022.0 mb)
Winds: from the S (180 degrees) at 9 MPH (8 knots; 4.1 m/s)
Visibility: 6 miles ( 9 km)
Ceiling: at least 12,000 feet AGL
Clouds: scattered clouds at 2200 feet AGL
few clouds at 2400 feet AGL
Weather: no significant weather observed at this time

METAR text: HUEN 180800Z 28005KT 8000 FEW022 FEW024CB 25/21 Q1021
Conditions at: HUEN (ENTEBBE INTL ARP, UG) observed 0800 UTC 18 June 2019
Temperature: 25.0°C (77°F)
Dewpoint: 21.0°C (70°F) [RH = 79%]
Pressure (altimeter): 30.15 inches Hg (1021.0 mb)
Winds: from the W (280 degrees) at 6 MPH (5 knots; 2.6 m/s)
Visibility: 5 miles ( 8 km)
Ceiling: at least 12,000 feet AGL
Clouds: few clouds at 2200 feet AGL
few clouds at 2400 feet AGL
Weather: no significant weather observed at this time

METAR text: HUEN 180730Z 34005KT 8000 FEW021 FEW023CB 24/21 Q1022
Conditions at: HUEN (ENTEBBE INTL ARP, UG) observed 0730 UTC 18 June 2019
Temperature: 24.0°C (75°F)
Dewpoint: 21.0°C (70°F) [RH = 83%]
Pressure (altimeter): 30.18 inches Hg (1022.0 mb)
Winds: from the NNW (340 degrees) at 6 MPH (5 knots; 2.6 m/s)
Visibility: 5 miles ( 8 km)
Ceiling: at least 12,000 feet AGL
Clouds: few clouds at 2100 feet AGL
few clouds at 2300 feet AGL
Weather: no significant weather observed at this time

METAR text: HUEN 180700Z 33004KT 7000 FEW020 FEW022CB 23/21 Q1022
Conditions at: HUEN (ENTEBBE INTL ARP, UG) observed 0700 UTC 18 June 2019
Temperature: 23.0°C (73°F)
Dewpoint: 21.0°C (70°F) [RH = 89%]
Pressure (altimeter): 30.18 inches Hg (1022.0 mb)
Winds: from the NNW (330 degrees) at 5 MPH (4 knots; 2.1 m/s)
Visibility: 4 miles ( 7 km)
Ceiling: at least 12,000 feet AGL
Clouds: few clouds at 2000 feet AGL
few clouds at 2200 feet AGL
Weather: no significant weather observed at this time

METAR text: HUEN 180630Z 30004KT 7000 FEW020 FEW022CB 22/21 Q1022
Conditions at: HUEN (ENTEBBE INTL ARP, UG) observed 0630 UTC 18 June 2019
Temperature: 22.0°C (72°F)
Dewpoint: 21.0°C (70°F) [RH = 94%]
Pressure (altimeter): 30.18 inches Hg (1022.0 mb)
Winds: from the WNW (300 degrees) at 5 MPH (4 knots; 2.1 m/s)
Visibility: 4 miles ( 7 km)
Ceiling: at least 12,000 feet AGL
Clouds: few clouds at 2000 feet AGL
few clouds at 2200 feet AGL
Weather: no significant weather observed at this time

METAR text: HUEN 180600Z 36003KT 8000 SCT019 FEW021CB BKN110 21/20 Q1022
Conditions at: HUEN (ENTEBBE INTL ARP, UG) observed 0600 UTC 18 June 2019
Temperature: 21.0°C (70°F)
Dewpoint: 20.0°C (68°F) [RH = 94%]
Pressure (altimeter): 30.18 inches Hg (1022.0 mb)
Winds: from the N (360 degrees) at 3 MPH (3 knots; 1.5 m/s)
Visibility: 5 miles ( 8 km)
Ceiling: 11000 feet AGL
Clouds: scattered clouds at 1900 feet AGL
few clouds at 2100 feet AGL
broken clouds at 11000 feet AGL
Weather: no significant weather observed at this time

Forecast for: HUEN (ENTEBBE INTL ARP, UG)
Text: TAF HUEN 181100Z 1812/1918 19010KT 9999 FEW023 FEW025CB
Forecast period: 1200 to 2000 UTC 18 June 2019
Forecast type: FROM: standard forecast or significant change
Winds: from the S (190 degrees) at 12 MPH (10 knots; 5.1 m/s)
Visibility: 6 or more miles 10+ km)
Ceiling: at least 12,000 feet AGL
Clouds: few clouds at 2300 feet AGL
few clouds at 2500 feet AGL
Weather: no significant weather forecast for this period
Text: BECMG 1820/1824 34005KT FEW020 FEW022CB
Forecast period: 2000 UTC 18 June 2019 to 1800 UTC 19 June 2019
Forecast type: BECOMING: Conditions expected to become as follows by 0000 UTC 19 June 2019
Winds: from the NNW (340 degrees) at 6 MPH (5 knots; 2.6 m/s)
Visibility: 6 or more miles 10+ km)
Ceiling: at least 12,000 feet AGL
Clouds: few clouds at 2000 feet AGL
few clouds at 2200 feet AGL
Weather: no significant weather forecast for this period
Text: TEMPO 1902/1908 VRB10KT TS SCT018 FEW020CB BKN100
Forecast period: 0200 to 0800 UTC 19 June 2019
Forecast type: TEMPORARY: The following changes expected for less than half the time period
Winds: variable direction winds at 12 MPH (10 knots; 5.1 m/s)
Visibility: missing
Ceiling: 10000 feet AGL
Clouds: scattered clouds at 1800 feet AGL
few clouds at 2000 feet AGL
broken clouds at 10000 feet AGL
Weather: TS  (thunderstorm)